createdAt,value
2018-10-06T00:02:07.346Z,1.80
2018-10-06T00:05:10.430Z,1.77
2018-10-06T00:08:13.522Z,1.77
2018-10-06T00:11:17.360Z,1.90
2018-10-06T00:14:20.487Z,1.90
2018-10-06T00:17:23.744Z,2.00
2018-10-06T00:20:26.868Z,1.80
2018-10-06T00:23:29.976Z,1.87
2018-10-06T00:26:33.089Z,1.60
2018-10-06T00:29:36.385Z,1.75
2018-10-06T00:32:39.561Z,1.70
2018-10-06T00:35:42.725Z,1.70
2018-10-06T00:38:45.863Z,1.73
2018-10-06T00:41:48.972Z,1.87
2018-10-06T00:44:52.137Z,1.80
2018-10-06T00:47:55.232Z,1.67
2018-10-06T00:50:58.364Z,1.70
2018-10-06T00:54:01.472Z,1.60
2018-10-06T00:57:04.610Z,1.60
2018-10-06T01:00:07.717Z,1.70
2018-10-06T01:03:10.881Z,1.57
2018-10-06T01:06:13.967Z,1.50
2018-10-06T01:09:17.064Z,1.80
2018-10-06T01:12:20.165Z,1.80
2018-10-06T01:15:23.289Z,1.73
2018-10-06T01:24:00.405Z,1.67
2018-10-06T01:27:03.528Z,1.63
2018-10-06T01:30:06.644Z,1.70
2018-10-06T01:33:09.753Z,1.70
2018-10-06T01:36:13.079Z,1.90
2018-10-06T01:39:16.191Z,1.60
2018-10-06T01:42:19.309Z,1.60
2018-10-06T01:45:22.448Z,1.70
2018-10-06T01:48:25.536Z,1.67
2018-10-06T01:51:28.664Z,1.63
2018-10-06T01:54:32.828Z,1.57
2018-10-06T01:57:35.913Z,1.60
2018-10-06T02:00:39.013Z,1.57
2018-10-06T02:03:42.153Z,1.73
2018-10-06T02:06:45.241Z,1.70
2018-10-06T02:09:48.340Z,1.73
2018-10-06T02:12:51.432Z,1.70
2018-10-06T02:15:54.536Z,1.70
2018-10-06T02:18:57.645Z,1.73
2018-10-06T02:22:00.763Z,1.77
2018-10-06T02:25:03.884Z,1.60
2018-10-06T02:28:07.224Z,1.70
2018-10-06T02:31:10.311Z,1.50
2018-10-06T02:34:13.409Z,1.63
2018-10-06T02:37:16.505Z,1.70
2018-10-06T02:40:19.656Z,1.60
2018-10-06T02:43:22.763Z,1.70
2018-10-06T02:46:25.868Z,1.43
2018-10-06T02:49:29.004Z,1.90
2018-10-06T02:52:32.116Z,1.53
2018-10-06T02:55:35.240Z,1.60
2018-10-06T02:58:38.336Z,1.70
2018-10-06T03:01:41.471Z,1.80
2018-10-06T03:04:44.606Z,1.60
2018-10-06T03:07:47.724Z,1.60
2018-10-06T03:10:50.838Z,1.83
2018-10-06T03:13:54.238Z,1.67
2018-10-06T03:16:57.332Z,1.70
2018-10-06T03:20:00.445Z,1.60
2018-10-06T03:23:03.563Z,1.90
2018-10-06T03:26:06.755Z,1.50
2018-10-06T03:29:09.916Z,1.80
2018-10-06T03:32:13.050Z,1.70
2018-10-06T03:35:16.176Z,1.60
2018-10-06T03:38:20.308Z,1.70
2018-10-06T03:41:23.417Z,1.60
2018-10-06T03:44:26.518Z,1.73
2018-10-06T03:47:29.617Z,1.60
2018-10-06T03:50:32.796Z,1.70
2018-10-06T03:53:36.200Z,1.50
2018-10-06T03:56:40.363Z,1.57
2018-10-06T03:59:43.449Z,1.50
2018-10-06T04:02:46.703Z,1.77
2018-10-06T04:05:49.740Z,1.50
2018-10-06T04:08:52.861Z,1.53
2018-10-06T04:11:55.994Z,1.70
2018-10-06T04:14:59.104Z,1.70
2018-10-06T04:18:02.240Z,1.50
2018-10-06T04:21:05.453Z,1.40
2018-10-06T04:24:08.569Z,1.63
2018-10-06T04:27:11.735Z,1.47
2018-10-06T04:30:14.884Z,1.60
2018-10-06T04:33:18.040Z,1.50
2018-10-06T04:36:21.166Z,1.60
2018-10-06T04:39:24.320Z,1.33
2018-10-06T04:42:27.696Z,1.60
2018-10-06T04:45:30.830Z,1.60
2018-10-06T04:48:33.949Z,1.40
2018-10-06T04:51:37.061Z,1.47
2018-10-06T04:54:41.276Z,1.50
2018-10-06T04:57:44.452Z,1.57
2018-10-06T05:00:47.586Z,1.50
2018-10-06T05:03:50.767Z,1.70
2018-10-06T05:06:53.876Z,1.60
2018-10-06T05:09:56.986Z,1.57
2018-10-06T05:13:00.104Z,1.50
2018-10-06T05:16:03.224Z,1.43
2018-10-06T05:19:06.344Z,1.50
2018-10-06T05:22:09.459Z,1.40
2018-10-06T05:25:12.597Z,1.50
2018-10-06T05:28:15.745Z,1.30
2018-10-06T05:31:18.893Z,1.50
2018-10-06T05:34:22.016Z,1.50
2018-10-06T05:37:25.172Z,1.53
2018-10-06T05:40:28.299Z,1.50
2018-10-06T05:43:31.428Z,1.70
2018-10-06T05:46:34.725Z,1.50
2018-10-06T05:49:37.862Z,1.57
2018-10-06T05:52:41.025Z,1.57
2018-10-06T05:55:44.158Z,1.33
2018-10-06T05:58:47.296Z,1.53
2018-10-06T06:01:50.437Z,1.47
2018-10-06T06:04:53.540Z,1.60
2018-10-06T06:07:56.632Z,1.43
2018-10-06T06:10:59.748Z,1.57
2018-10-06T06:14:02.885Z,1.50
2018-10-06T06:17:06.016Z,1.50
2018-10-06T06:20:09.165Z,1.60
2018-10-06T06:23:12.396Z,1.60
2018-10-06T06:26:15.540Z,1.40
2018-10-06T06:29:18.658Z,1.50
2018-10-06T06:32:21.900Z,1.60
2018-10-06T06:35:25.041Z,1.47
2018-10-06T06:38:28.285Z,1.60
2018-10-06T06:41:31.378Z,1.50
2018-10-06T06:44:34.659Z,1.60
2018-10-06T06:47:37.644Z,1.40
2018-10-06T06:50:40.721Z,1.43
2018-10-06T06:53:43.824Z,1.60
2018-10-06T06:56:47.031Z,1.40
2018-10-06T06:59:50.123Z,1.47
2018-10-06T07:02:53.216Z,1.20
2018-10-06T07:05:56.302Z,1.37
2018-10-06T07:08:59.413Z,1.43
2018-10-06T07:12:02.523Z,1.33
2018-10-06T07:15:05.669Z,1.73
2018-10-06T07:18:08.826Z,1.50
2018-10-06T07:21:12.045Z,1.30
2018-10-06T07:24:15.144Z,1.40
2018-10-06T07:27:18.273Z,1.50
2018-10-06T07:30:21.518Z,1.37
2018-10-06T07:33:24.670Z,1.33
2018-10-06T07:36:27.783Z,1.50
2018-10-06T07:39:30.919Z,1.73
2018-10-06T07:42:34.027Z,1.50
2018-10-06T07:45:37.143Z,1.47
2018-10-06T07:48:40.347Z,1.50
2018-10-06T07:51:43.421Z,1.43
2018-10-06T07:54:46.542Z,1.70
2018-10-06T07:57:50.419Z,1.40
2018-10-06T08:00:53.518Z,1.40
2018-10-06T08:03:56.665Z,1.40
2018-10-06T08:06:59.778Z,1.50
2018-10-06T08:10:02.888Z,1.47
2018-10-06T08:13:06.504Z,1.73
2018-10-06T08:16:09.665Z,1.60
2018-10-06T08:19:12.777Z,1.43
2018-10-06T08:22:15.859Z,1.50
2018-10-06T08:25:18.964Z,1.40
2018-10-06T08:28:22.105Z,1.60
2018-10-06T08:31:25.232Z,1.50
2018-10-06T08:34:28.364Z,1.70
2018-10-06T08:37:31.468Z,1.40
2018-10-06T08:40:34.612Z,1.60
2018-10-06T08:43:37.743Z,1.60
2018-10-06T08:46:40.888Z,1.80
2018-10-06T08:49:44.080Z,1.70
2018-10-06T08:52:47.185Z,1.50
2018-10-06T08:55:50.335Z,1.60
2018-10-06T08:58:53.892Z,1.77
2018-10-06T09:01:57.009Z,1.50
2018-10-06T09:05:00.105Z,1.57
2018-10-06T09:08:03.328Z,1.60
2018-10-06T09:11:06.858Z,1.60
2018-10-06T09:14:10.003Z,1.60
2018-10-06T09:17:13.156Z,1.60
2018-10-06T09:20:16.471Z,1.70
2018-10-06T09:23:19.590Z,1.60
2018-10-06T09:26:22.720Z,1.50
2018-10-06T09:29:25.840Z,1.80
2018-10-06T09:32:29.080Z,1.50
2018-10-06T09:35:32.260Z,1.50
2018-10-06T09:38:35.428Z,1.90
2018-10-06T09:41:38.564Z,1.63
2018-10-06T09:44:41.715Z,1.50
2018-10-06T09:47:44.904Z,1.63
2018-10-06T09:50:48.104Z,1.60
2018-10-06T09:53:51.365Z,1.67
2018-10-06T09:56:54.532Z,1.60
2018-10-06T09:59:57.759Z,1.67
2018-10-06T10:03:06.285Z,1.43
2018-10-06T10:06:09.437Z,1.60
2018-10-06T10:09:14.010Z,1.70
2018-10-06T10:12:17.189Z,1.70
2018-10-06T10:15:20.399Z,1.87
2018-10-06T10:18:23.708Z,1.50
2018-10-06T10:21:26.665Z,1.50
2018-10-06T10:24:29.771Z,1.63
2018-10-06T10:27:32.921Z,1.80
2018-10-06T10:30:36.140Z,1.70
2018-10-06T10:33:39.273Z,1.60
2018-10-06T10:36:42.406Z,1.77
2018-10-06T10:39:45.613Z,1.60
2018-10-06T10:42:48.643Z,1.70
2018-10-06T10:45:51.764Z,1.60
2018-10-06T10:48:54.934Z,1.60
2018-10-06T10:51:58.066Z,1.73
2018-10-06T10:55:01.231Z,1.60
2018-10-06T10:58:04.383Z,1.70
2018-10-06T11:01:07.901Z,1.60
2018-10-06T11:04:11.020Z,1.70
2018-10-06T11:07:14.237Z,1.27
2018-10-06T11:10:17.369Z,1.60
2018-10-06T11:13:20.501Z,1.70
2018-10-06T11:16:23.623Z,1.80
2018-10-06T11:19:26.777Z,1.60
2018-10-06T11:22:29.857Z,1.73
2018-10-06T11:25:33.082Z,1.63
2018-10-06T11:28:36.197Z,1.50
2018-10-06T11:31:39.304Z,1.50
2018-10-06T11:34:42.406Z,1.60
2018-10-06T11:37:45.669Z,1.60
2018-10-06T11:40:50.980Z,1.67
2018-10-06T11:43:54.196Z,1.70
2018-10-06T11:46:57.336Z,1.50
2018-10-06T11:50:00.504Z,1.60
2018-10-06T11:53:03.656Z,1.60
2018-10-06T11:56:06.897Z,1.80
2018-10-06T11:59:10.095Z,1.60
2018-10-06T12:02:13.201Z,1.53
2018-10-06T12:05:16.734Z,1.47
2018-10-06T12:08:19.911Z,1.60
2018-10-06T12:11:23.005Z,1.70
2018-10-06T12:14:26.098Z,1.57
2018-10-06T12:17:29.190Z,1.80
2018-10-06T12:20:32.314Z,1.87
2018-10-06T12:23:35.382Z,1.60
2018-10-06T12:26:38.549Z,1.60
2018-10-06T12:29:41.716Z,1.50
2018-10-06T12:32:44.831Z,1.70
2018-10-06T12:35:48.051Z,1.60
2018-10-06T12:38:51.142Z,1.63
2018-10-06T12:41:54.286Z,1.40
2018-10-06T12:44:57.422Z,1.60
2018-10-06T12:48:00.550Z,1.80
2018-10-06T12:51:03.693Z,1.63
2018-10-06T12:54:06.871Z,1.40
2018-10-06T12:57:10.000Z,1.60
2018-10-06T13:00:13.245Z,1.60
2018-10-06T13:03:16.264Z,1.50
2018-10-06T13:06:19.437Z,1.70
2018-10-06T13:09:22.577Z,1.70
2018-10-06T13:12:25.754Z,1.40
2018-10-06T13:15:28.883Z,1.73
2018-10-06T13:18:32.052Z,1.70
2018-10-06T13:21:35.168Z,1.70
2018-10-06T13:24:38.437Z,1.50
2018-10-06T13:27:41.543Z,1.63
2018-10-06T13:30:44.652Z,1.73
2018-10-06T13:33:47.837Z,1.70
2018-10-06T13:36:50.963Z,1.50
2018-10-06T13:39:54.269Z,1.43
2018-10-06T13:42:57.403Z,1.60
2018-10-06T13:46:00.532Z,1.70
2018-10-06T13:49:03.691Z,1.70
2018-10-06T13:52:06.907Z,1.50
2018-10-06T13:55:11.174Z,1.50
2018-10-06T13:58:14.391Z,1.60
2018-10-06T14:01:17.464Z,1.50
2018-10-06T14:04:20.611Z,1.60
2018-10-06T14:07:23.697Z,1.80
2018-10-06T14:10:26.829Z,1.50
2018-10-06T14:13:29.988Z,1.80
2018-10-06T14:16:33.082Z,1.70
2018-10-06T14:19:36.208Z,1.40
2018-10-06T14:22:39.375Z,1.70
2018-10-06T14:25:42.495Z,1.50
2018-10-06T14:28:45.682Z,1.53
2018-10-06T14:31:48.845Z,1.60
2018-10-06T14:34:52.001Z,1.67
2018-10-06T14:37:55.125Z,1.70
2018-10-06T14:40:58.793Z,1.60
2018-10-06T14:44:02.941Z,1.60
2018-10-06T14:47:06.123Z,1.63
2018-10-06T14:50:09.196Z,1.60
2018-10-06T14:53:12.340Z,1.70
2018-10-06T14:56:15.519Z,1.63
2018-10-06T14:59:18.688Z,1.50
2018-10-06T15:02:21.823Z,1.70
2018-10-06T15:05:25.014Z,1.77
2018-10-06T15:08:28.716Z,1.62
2018-10-06T15:11:31.825Z,1.70
2018-10-06T15:14:34.973Z,1.53
2018-10-06T15:17:38.088Z,1.70
2018-10-06T15:20:41.196Z,1.60
2018-10-06T15:23:44.310Z,1.53
2018-10-06T15:26:47.407Z,1.60
2018-10-06T15:29:50.591Z,1.62
2018-10-06T15:32:53.738Z,1.63
2018-10-06T15:35:56.851Z,1.60
2018-10-06T15:38:59.968Z,1.50
2018-10-06T15:42:03.112Z,1.50
2018-10-06T15:45:06.552Z,1.70
2018-10-06T15:48:09.737Z,1.73
2018-10-06T15:51:13.028Z,1.67
2018-10-06T15:54:16.049Z,1.40
2018-10-06T15:57:20.230Z,1.60
2018-10-06T16:00:24.117Z,1.80
2018-10-06T16:03:27.273Z,1.80
2018-10-06T16:06:30.445Z,1.70
2018-10-06T16:09:33.541Z,1.70
2018-10-06T16:12:36.723Z,1.70
2018-10-06T16:15:39.881Z,1.70
2018-10-06T16:18:43.020Z,1.83
2018-10-06T16:21:46.169Z,1.70
2018-10-06T16:24:49.418Z,1.70
2018-10-06T16:27:52.539Z,1.70
2018-10-06T16:30:55.929Z,1.80
2018-10-06T16:33:59.072Z,1.57
2018-10-06T16:37:02.312Z,1.70
2018-10-06T16:40:05.565Z,1.77
2018-10-06T16:43:08.683Z,1.80
2018-10-06T16:46:11.796Z,1.80
2018-10-06T16:49:15.079Z,1.60
2018-10-06T16:52:19.215Z,1.70
2018-10-06T16:55:22.344Z,1.80
2018-10-06T16:58:25.444Z,1.80
2018-10-06T17:01:28.545Z,1.73
2018-10-06T17:04:31.660Z,1.60
2018-10-06T17:07:34.820Z,1.80
2018-10-06T17:10:38.001Z,1.63
2018-10-06T17:13:41.148Z,1.50
2018-10-06T17:16:44.264Z,1.80
2018-10-06T17:19:47.357Z,1.80
2018-10-06T17:22:50.461Z,1.90
2018-10-06T17:25:53.559Z,1.80
2018-10-06T17:28:56.735Z,1.70
2018-10-06T17:31:59.912Z,1.80
2018-10-06T17:35:03.042Z,1.77
2018-10-06T17:38:06.135Z,1.70
2018-10-06T17:41:09.272Z,1.80
2018-10-06T17:44:12.432Z,1.90
2018-10-06T17:47:15.527Z,2.03
2018-10-06T17:50:18.636Z,1.87
2018-10-06T17:53:21.705Z,2.10
2018-10-06T17:56:24.826Z,1.97
2018-10-06T17:59:27.903Z,1.73
2018-10-06T18:02:31.023Z,1.73
2018-10-06T18:05:34.164Z,1.97
2018-10-06T18:08:37.262Z,1.90
2018-10-06T18:11:40.389Z,1.90
2018-10-06T18:14:43.588Z,2.00
2018-10-06T18:17:46.600Z,2.13
2018-10-06T18:20:49.741Z,2.10
2018-10-06T18:23:52.747Z,2.30
2018-10-06T18:26:55.859Z,2.07
2018-10-06T18:29:59.031Z,2.20
2018-10-06T18:33:02.153Z,2.10
2018-10-06T18:36:05.353Z,2.30
2018-10-06T18:39:08.752Z,2.10
2018-10-06T18:42:11.861Z,2.20
2018-10-06T18:45:15.037Z,2.20
2018-10-06T18:48:18.167Z,864.12
2018-10-06T18:51:21.295Z,178.20
2018-10-06T18:54:24.404Z,65.87
2018-10-06T18:57:27.531Z,304.13
2018-10-06T19:00:30.697Z,384.93
2018-10-06T19:03:34.047Z,225.13
2018-10-06T19:06:37.040Z,261.60
2018-10-06T19:09:40.169Z,78.43
2018-10-06T19:12:43.274Z,40.33
2018-10-06T19:15:46.396Z,29.67
2018-10-06T19:18:49.593Z,25.67
2018-10-06T19:21:52.763Z,22.67
2018-10-06T19:24:55.950Z,20.67
2018-10-06T19:27:59.055Z,21.43
2018-10-06T19:31:02.281Z,19.77
2018-10-06T19:35:08.869Z,18.90
2018-10-06T19:38:12.035Z,17.27
2018-10-06T19:41:15.148Z,15.77
2018-10-06T19:44:18.937Z,14.37
2018-10-06T19:47:22.116Z,14.93
2018-10-06T19:50:25.225Z,15.83
2018-10-06T19:53:28.813Z,21.45
2018-10-06T19:56:31.935Z,21.93
2018-10-06T19:59:35.064Z,20.17
2018-10-06T20:02:38.195Z,18.70
2018-10-06T20:05:41.367Z,17.97
2018-10-06T20:08:44.486Z,15.78
2018-10-06T20:11:49.733Z,15.43
2018-10-06T20:14:52.897Z,15.67
2018-10-06T20:17:56.052Z,14.30
2018-10-06T20:20:59.183Z,13.40
2018-10-06T20:24:02.405Z,14.37
2018-10-06T20:27:05.769Z,19.30
2018-10-06T20:30:07.926Z,39.23
2018-10-06T20:33:12.168Z,21.68
2018-10-06T20:36:15.301Z,16.63
2018-10-06T20:39:18.481Z,14.33
2018-10-06T20:42:22.707Z,12.90
2018-10-06T20:45:25.822Z,11.35
2018-10-06T20:48:28.934Z,11.10
2018-10-06T20:51:37.763Z,11.00
2018-10-06T20:54:40.872Z,11.47
2018-10-06T20:57:44.003Z,10.60
2018-10-06T21:00:47.274Z,133.30
2018-10-06T21:03:50.427Z,93.37
2018-10-06T21:06:53.565Z,41.10
2018-10-06T21:09:56.709Z,54.77
2018-10-06T21:12:59.834Z,46.60
2018-10-06T21:16:02.984Z,40.70
2018-10-06T21:19:06.400Z,34.10
2018-10-06T21:22:09.544Z,31.43
2018-10-06T21:25:12.650Z,27.17
2018-10-06T21:28:15.867Z,664.20
2018-10-06T21:31:19.017Z,624.73
2018-10-06T21:34:26.148Z,445.07
2018-10-06T21:37:29.326Z,390.37
2018-10-06T21:40:39.382Z,322.90
2018-10-06T21:43:42.527Z,275.80
2018-10-06T21:46:45.655Z,234.37
2018-10-06T21:49:48.785Z,202.17
2018-10-06T21:52:51.888Z,163.07
2018-10-06T21:55:54.984Z,158.67
2018-10-06T21:58:58.133Z,148.33
2018-10-06T22:02:03.305Z,135.13
2018-10-06T22:05:06.414Z,124.30
2018-10-06T22:08:09.568Z,113.37
2018-10-06T22:11:12.674Z,104.80
2018-10-06T22:14:15.781Z,97.43
2018-10-06T22:17:18.956Z,88.17
2018-10-06T22:20:22.086Z,80.73
2018-10-06T22:23:25.421Z,76.47
2018-10-06T22:26:28.584Z,67.27
2018-10-06T22:29:31.708Z,61.20
2018-10-06T22:32:34.846Z,57.83
2018-10-06T22:35:37.962Z,54.43
2018-10-06T22:38:41.045Z,52.13
2018-10-06T22:41:44.158Z,48.13
2018-10-06T22:44:47.246Z,44.60
2018-10-06T22:47:50.347Z,40.83
2018-10-06T22:50:53.489Z,38.70
2018-10-06T22:53:56.592Z,36.47
2018-10-06T22:56:59.672Z,33.27
2018-10-06T23:00:02.905Z,31.67
2018-10-06T23:03:06.300Z,29.67
2018-10-06T23:06:09.539Z,28.77
2018-10-06T23:09:13.064Z,26.13
2018-10-06T23:12:16.178Z,25.13
2018-10-06T23:15:20.337Z,24.37
2018-10-06T23:18:23.448Z,23.20
2018-10-06T23:21:26.512Z,22.13
2018-10-06T23:24:29.583Z,20.23
2018-10-06T23:27:32.682Z,19.20
2018-10-06T23:30:36.847Z,18.10
2018-10-06T23:33:40.017Z,17.23
2018-10-06T23:36:43.223Z,17.70
2018-10-06T23:39:46.340Z,16.77
2018-10-06T23:42:49.460Z,15.33
2018-10-06T23:45:52.597Z,15.07
2018-10-06T23:48:55.709Z,15.37
2018-10-06T23:51:58.814Z,14.20
2018-10-06T23:55:01.949Z,13.90
2018-10-06T23:58:05.022Z,14.00
